Abalroador — CSOO7 — position and weather

sailwx.info

Track history (hours):
 
Tides and Currents Weather Stations Pressure Air Temp Water Temp Dewpoint Dewpoint Depression Visibility Wind Speed Wind Dir Waves Ship Positions

Abalroador

Last reported at 2018-Jun-20 22:24 UTC. Time now 2018-Jun-21 13:54 UTC.
Position N 38°25' W 009°04'.

Length 12 m.

Type: . MMSI: 263673843.

Date/timePositionNaut miles runAvg speedWind from/ knotsBaromVisibWave heightAir tempDewpointWater temp
2018-Jun-20 22:24N 38°25' W 009°04'1024.6
2018-Jun-20 22:00N 38°27' W 009°17'1427.1
2018-Jun-20 21:28N 38°40' W 009°24'1122.6
2018-Jun-20 21:00N 38°49' W 009°32'1324.6
2018-Jun-20 20:28N 39°03' W 009°30'4 0.4
2018-Jun-20 10:45N 39°05' W 009°27'729.4
2018-Jun-20 10:30N 38°58' W 009°28'1426.1
2018-Jun-20 09:59N 38°45' W 009°31'1428.5
2018-Jun-20 09:29N 38°32' W 009°22'1524.7
2018-Jun-20 08:52N 38°25' W 009°05'9 0.2
2018-Jun-18 17:21N 38°31' W 008°55'3 9.1
2018-Jun-18 17:00N 38°29' W 008°58'510.2
2018-Jun-18 16:30N 38°26' W 009°03'2 3.1
2018-Jun-18 16:00N 38°26' W 009°05'1 1.1
2018-Jun-18 14:55N 38°26' W 009°04'510.5
2018-Jun-18 14:28N 38°28' W 008°58'  
Track history (hours):
 
Tides and Currents Weather Stations Pressure Air Temp Water Temp Dewpoint Dewpoint Depression Visibility Wind Speed Wind Dir Waves Ship Positions

Abalroador

Last reported at 2018-Jun-20 22:24 UTC. Time now 2018-Jun-21 13:54 UTC.
Position N 38°25' W 009°04'.

Length 12 m.

Type: . MMSI: 263673843.

Date/timePositionNaut miles runAvg speedWind from/ knotsBaromVisibWave heightAir tempDewpointWater temp
2018-Jun-20 22:24N 38°25' W 009°04'1024.6
2018-Jun-20 22:00N 38°27' W 009°17'1427.1
2018-Jun-20 21:28N 38°40' W 009°24'1122.6
2018-Jun-20 21:00N 38°49' W 009°32'1324.6
2018-Jun-20 20:28N 39°03' W 009°30'4 0.4
2018-Jun-20 10:45N 39°05' W 009°27'729.4
2018-Jun-20 10:30N 38°58' W 009°28'1426.1
2018-Jun-20 09:59N 38°45' W 009°31'1428.5
2018-Jun-20 09:29N 38°32' W 009°22'1524.7
2018-Jun-20 08:52N 38°25' W 009°05'9 0.2
2018-Jun-18 17:21N 38°31' W 008°55'3 9.1
2018-Jun-18 17:00N 38°29' W 008°58'510.2
2018-Jun-18 16:30N 38°26' W 009°03'2 3.1
2018-Jun-18 16:00N 38°26' W 009°05'1 1.1
2018-Jun-18 14:55N 38°26' W 009°04'510.5
2018-Jun-18 14:28N 38°28' W 008°58'  

Dump ship's entire track history